Time;durP1;ratioP1;P1;durP2;ratioP2;P2;SDS_P1;SDS_P2;PMS_P1;PMS_P2;Temp;Humidity;BMP_temperature;BMP_pressure;BME280_temperature;BME280_humidity;BME280_pressure;Samples;Min_cycle;Max_cycle;Signal;HPM_P1;HPM_P2
2021/12/05 00:18:31;;;;;;;;;;;22.50;54.00;;;;;;5126584;28;899;-34
2021/12/05 00:24:12;;;;;;;;;;;22.50;54.00;;;;;;5114791;27;1260;-39
2021/12/05 00:26:40;;;;;;;;;;;22.50;54.00;;;;;;5115112;28;1377;-38
2021/12/05 00:32:04;;;;;;;;;;;22.40;53.90;;;;;;5114420;28;1292;-37
2021/12/05 00:40:43;;;;;;;;;;;22.50;55.00;;;;;;5115708;28;731;-34
2021/12/05 00:46:21;;;;;;;;;;;22.40;54.10;;;;;;5115030;28;761;-34
2021/12/05 00:52:15;;;;;;;;;;;22.50;53.90;;;;;;5114069;28;631;-34
2021/12/05 00:57:40;;;;;;;;;;;22.80;52.90;;;;;;5114867;28;1051;-34
2021/12/05 01:00:28;;;;;;;;;;;22.90;52.50;;;;;;5114576;28;1179;-34
2021/12/05 01:09:11;;;;;;;;;;;23.60;50.80;;;;;;5115170;27;1097;-33
2021/12/05 01:14:30;;;;;;;;;;;24.20;49.20;;;;;;5109458;28;2677;-32
2021/12/05 01:16:58;;;;;;;;;;;24.30;48.80;;;;;;5115217;28;984;-33
2021/12/05 01:19:25;;;;;;;;;;;24.40;48.50;;;;;;5114763;28;1126;-32
2021/12/05 01:21:53;;;;;;;;;;;24.50;48.30;;;;;;5115077;28;996;-32
2021/12/05 01:24:30;;;;;;;;;;;24.60;48.20;;;;;;5114875;28;1011;-33
2021/12/05 01:27:04;;;;;;;;;;;24.50;48.10;;;;;;5115106;28;1909;-32
2021/12/05 01:29:41;;;;;;;;;;;24.40;48.10;;;;;;5114698;28;1008;-33
2021/12/05 01:32:16;;;;;;;;;;;24.40;48.00;;;;;;5115071;28;1019;-32
2021/12/05 01:34:55;;;;;;;;;;;24.40;48.10;;;;;;5114692;28;945;-34
2021/12/05 01:37:31;;;;;;;;;;;24.40;48.00;;;;;;5115112;28;1394;-32
2021/12/05 01:46:18;;;;;;;;;;;24.50;47.90;;;;;;5051414;28;1804;-33
2021/12/05 01:49:15;;;;;;;;;;;24.40;47.80;;;;;;5102773;28;1983;-32
2021/12/05 01:57:44;;;;;;;;;;;24.30;47.80;;;;;;5056643;28;1061;-32
2021/12/05 02:07:42;;;;;;;;;;;24.30;48.20;;;;;;5114317;28;1750;-30
2021/12/05 02:12:04;;;;;;;;;;;24.10;48.30;;;;;;5113893;28;1005;-30
2021/12/05 02:31:35;;;;;;;;;;;23.60;49.20;;;;;;5100246;28;915;-29
2021/12/05 02:34:15;;;;;;;;;;;23.50;49.60;;;;;;5100591;28;1043;-29
2021/12/05 02:37:03;;;;;;;;;;;23.50;49.80;;;;;;5101173;28;920;-29
2021/12/05 02:39:47;;;;;;;;;;;23.40;49.90;;;;;;5100581;28;1120;-30
2021/12/05 02:42:17;;;;;;;;;;;23.30;50.10;;;;;;5100909;28;1011;-29
2021/12/05 02:44:46;;;;;;;;;;;23.20;50.20;;;;;;5100689;28;949;-29
2021/12/05 02:47:14;;;;;;;;;;;23.20;50.40;;;;;;5100718;28;1905;-29
2021/12/05 02:49:43;;;;;;;;;;;23.20;50.50;;;;;;5100790;28;1030;-29
2021/12/05 02:52:13;;;;;;;;;;;23.20;50.60;;;;;;5100870;28;937;-29
2021/12/05 02:54:44;;;;;;;;;;;23.10;50.60;;;;;;5100733;28;955;-29
2021/12/05 02:57:12;;;;;;;;;;;23.00;50.70;;;;;;5100279;28;972;-28
2021/12/05 02:59:47;;;;;;;;;;;23.00;50.80;;;;;;5099981;28;1038;-29
2021/12/05 03:02:17;;;;;;;;;;;23.00;50.90;;;;;;5100770;28;1009;-28
2021/12/05 03:04:45;;;;;;;;;;;22.90;51.10;;;;;;5100663;28;936;-28
2021/12/05 03:07:15;;;;;;;;;;;22.80;51.20;;;;;;5100277;28;1902;-28
2021/12/05 03:09:43;;;;;;;;;;;22.80;51.50;;;;;;5100257;28;1012;-28
2021/12/05 03:12:11;;;;;;;;;;;22.70;51.50;;;;;;5100384;28;1190;-29
2021/12/05 03:14:37;;;;;;;;;;;22.70;51.70;;;;;;5100129;28;977;-28
2021/12/05 03:17:05;;;;;;;;;;;22.60;51.60;;;;;;5100207;28;993;-29
2021/12/05 03:19:32;;;;;;;;;;;22.60;51.80;;;;;;5100180;28;1369;-28
2021/12/05 03:21:58;;;;;;;;;;;22.60;51.80;;;;;;5099622;28;976;-29
2021/12/05 03:24:26;;;;;;;;;;;22.60;52.00;;;;;;5099825;28;1006;-30
2021/12/05 03:26:54;;;;;;;;;;;22.50;52.10;;;;;;5099842;28;1981;-29
2021/12/05 03:29:22;;;;;;;;;;;22.50;52.10;;;;;;5100007;28;1884;-29
2021/12/05 03:31:50;;;;;;;;;;;22.40;52.10;;;;;;5098894;28;1000;-29
2021/12/05 03:34:17;;;;;;;;;;;22.40;52.20;;;;;;5100124;28;940;-29
2021/12/05 03:36:46;;;;;;;;;;;22.40;52.30;;;;;;5099815;28;980;-29
2021/12/05 03:39:13;;;;;;;;;;;22.40;52.40;;;;;;5099792;28;1156;-30
2021/12/05 03:41:42;;;;;;;;;;;22.40;52.30;;;;;;5099949;28;963;-29
2021/12/05 03:44:10;;;;;;;;;;;22.30;52.40;;;;;;5100419;28;992;-28
2021/12/05 03:46:37;;;;;;;;;;;22.30;52.50;;;;;;5099983;28;920;-29
2021/12/05 03:49:05;;;;;;;;;;;22.30;52.50;;;;;;5099528;28;1914;-28
2021/12/05 03:51:33;;;;;;;;;;;22.30;52.50;;;;;;5099083;28;1078;-29
2021/12/05 03:54:00;;;;;;;;;;;22.20;52.50;;;;;;5098758;28;1371;-29
2021/12/05 03:56:27;;;;;;;;;;;22.30;52.60;;;;;;5099486;28;1030;-29
2021/12/05 03:58:56;;;;;;;;;;;22.20;52.60;;;;;;5099478;28;961;-29
2021/12/05 04:01:24;;;;;;;;;;;22.20;52.60;;;;;;5099191;28;925;-29
2021/12/05 04:03:51;;;;;;;;;;;22.20;52.60;;;;;;5099351;28;1014;-29
2021/12/05 04:06:19;;;;;;;;;;;22.20;52.70;;;;;;5099369;28;1080;-30
2021/12/05 04:08:46;;;;;;;;;;;22.20;52.60;;;;;;5099638;28;1918;-29
2021/12/05 04:11:15;;;;;;;;;;;22.20;52.80;;;;;;5099480;28;1017;-30
2021/12/05 04:13:43;;;;;;;;;;;22.10;52.80;;;;;;5098906;28;1013;-29
2021/12/05 04:16:13;;;;;;;;;;;22.10;52.90;;;;;;5098831;28;1014;-29
2021/12/05 04:18:40;;;;;;;;;;;22.10;52.90;;;;;;5099096;28;1019;-30
2021/12/05 04:21:07;;;;;;;;;;;22.10;53.00;;;;;;5099368;28;1003;-29
2021/12/05 04:23:34;;;;;;;;;;;22.10;53.00;;;;;;5098948;28;1110;-29
2021/12/05 04:26:01;;;;;;;;;;;22.10;52.90;;;;;;5099356;28;1245;-29
2021/12/05 04:28:28;;;;;;;;;;;22.10;53.00;;;;;;5099413;28;1989;-29
2021/12/05 04:30:55;;;;;;;;;;;22.00;52.90;;;;;;5098724;28;1130;-29
2021/12/05 04:33:23;;;;;;;;;;;22.00;53.10;;;;;;5099429;28;925;-29
2021/12/05 04:35:50;;;;;;;;;;;22.00;53.00;;;;;;5098885;28;1004;-29
2021/12/05 04:38:17;;;;;;;;;;;22.00;53.00;;;;;;5099107;28;986;-30
2021/12/05 04:40:45;;;;;;;;;;;22.00;53.10;;;;;;5098500;28;929;-29
2021/12/05 04:43:12;;;;;;;;;;;22.10;53.10;;;;;;5098500;28;1088;-29
2021/12/05 04:45:41;;;;;;;;;;;22.00;53.00;;;;;;5098477;28;1034;-28
2021/12/05 04:48:08;;;;;;;;;;;22.10;52.90;;;;;;5098760;28;1972;-31
2021/12/05 04:50:37;;;;;;;;;;;22.10;52.80;;;;;;5098889;28;1826;-29
2021/12/05 04:53:04;;;;;;;;;;;22.10;52.90;;;;;;5098657;28;984;-30
2021/12/05 04:55:31;;;;;;;;;;;22.00;52.90;;;;;;5098645;28;940;-30
2021/12/05 04:57:58;;;;;;;;;;;22.00;53.00;;;;;;5098566;28;998;-31
2021/12/05 05:00:26;;;;;;;;;;;22.00;53.00;;;;;;5097700;28;1103;-28
2021/12/05 05:02:53;;;;;;;;;;;22.00;52.90;;;;;;5098510;28;1238;-31
2021/12/05 05:05:20;;;;;;;;;;;22.00;52.90;;;;;;5098280;28;988;-29
2021/12/05 05:07:48;;;;;;;;;;;22.00;52.90;;;;;;5097954;28;1977;-30
2021/12/05 05:10:16;;;;;;;;;;;22.00;52.90;;;;;;5098552;28;988;-30
2021/12/05 05:12:43;;;;;;;;;;;21.90;52.90;;;;;;5098761;28;994;-28
2021/12/05 05:15:11;;;;;;;;;;;21.90;52.90;;;;;;5098171;28;1072;-29
2021/12/05 05:17:39;;;;;;;;;;;22.00;52.90;;;;;;5098464;28;1154;-30
2021/12/05 05:20:17;;;;;;;;;;;22.00;52.90;;;;;;5097997;28;929;-29
2021/12/05 05:22:51;;;;;;;;;;;22.00;52.90;;;;;;5098458;28;1019;-29
2021/12/05 05:26:03;;;;;;;;;;;22.00;52.80;;;;;;5098624;28;992;-29
2021/12/05 05:45:12;;;;;;;;;;;21.90;53.00;;;;;;5064118;28;1091;-29
2021/12/05 05:47:51;;;;;;;;;;;21.90;52.90;;;;;;5098513;28;1976;-31
2021/12/05 05:50:18;;;;;;;;;;;21.90;53.10;;;;;;5098002;28;944;-30
2021/12/05 05:52:45;;;;;;;;;;;21.90;52.90;;;;;;5098281;28;1023;-29
2021/12/05 05:55:12;;;;;;;;;;;21.90;52.90;;;;;;5101022;28;1008;-32
2021/12/05 05:57:45;;;;;;;;;;;21.90;52.90;;;;;;5102530;28;971;-29
2021/12/05 06:00:16;;;;;;;;;;;21.90;52.80;;;;;;5101461;28;1019;-30
2021/12/05 06:05:29;;;;;;;;;;;22.00;52.70;;;;;;5101285;28;684;-29
2021/12/05 06:07:56;;;;;;;;;;;22.00;52.70;;;;;;5101793;28;1910;-30
2021/12/05 06:10:23;;;;;;;;;;;22.00;52.60;;;;;;5101742;28;992;-29
2021/12/05 06:12:52;;;;;;;;;;;21.90;52.50;;;;;;5101309;28;1012;-28
2021/12/05 06:15:20;;;;;;;;;;;22.00;52.60;;;;;;5101297;28;1095;-30
2021/12/05 06:17:46;;;;;;;;;;;21.90;52.50;;;;;;5101529;28;1132;-32
2021/12/05 06:20:15;;;;;;;;;;;21.90;52.60;;;;;;5101371;28;1122;-29
2021/12/05 06:22:42;;;;;;;;;;;22.00;52.50;;;;;;5101352;28;1004;-30
2021/12/05 06:25:13;;;;;;;;;;;22.00;52.40;;;;;;5101063;28;960;-29
2021/12/05 06:27:41;;;;;;;;;;;22.00;52.40;;;;;;5100979;28;1989;-29
2021/12/05 06:30:14;;;;;;;;;;;22.00;52.30;;;;;;5100629;28;1122;-30
2021/12/05 06:38:35;;;;;;;;;;;22.10;52.20;;;;;;5100744;28;1001;-28
2021/12/05 06:41:10;;;;;;;;;;;22.10;52.10;;;;;;5101086;28;1008;-30
2021/12/05 06:46:25;;;;;;;;;;;22.10;52.10;;;;;;5100015;28;908;-29
2021/12/05 06:48:52;;;;;;;;;;;22.10;52.00;;;;;;5100217;28;1898;-30
2021/12/05 06:51:20;;;;;;;;;;;22.00;51.90;;;;;;5099965;28;1848;-29
2021/12/05 06:53:47;;;;;;;;;;;22.00;52.10;;;;;;5099934;28;975;-30
2021/12/05 06:56:14;;;;;;;;;;;21.90;52.20;;;;;;5099783;28;944;-30
2021/12/05 06:58:41;;;;;;;;;;;21.90;52.20;;;;;;5099694;28;979;-29
2021/12/05 07:01:08;;;;;;;;;;;21.90;52.20;;;;;;5098929;28;984;-30
2021/12/05 07:03:39;;;;;;;;;;;21.90;52.30;;;;;;5098379;28;975;-30
2021/12/05 07:06:08;;;;;;;;;;;21.90;52.40;;;;;;5098868;28;1045;-29
2021/12/05 07:08:38;;;;;;;;;;;21.90;52.20;;;;;;5098371;28;1905;-29
2021/12/05 07:11:12;;;;;;;;;;;21.90;52.20;;;;;;5098863;28;984;-30
2021/12/05 07:16:41;;;;;;;;;;;21.90;52.20;;;;;;5036002;28;1208;-29
2021/12/05 07:19:21;;;;;;;;;;;21.90;52.30;;;;;;5085430;28;948;-30
2021/12/05 07:21:52;;;;;;;;;;;21.80;52.20;;;;;;5097492;28;1906;-30
2021/12/05 07:24:37;;;;;;;;;;;21.80;52.40;;;;;;5099257;28;1016;-29
2021/12/05 07:40:49;;;;;;;;;;;21.90;52.10;;;;;;5077123;28;790;-30
2021/12/05 07:43:17;;;;;;;;;;;21.90;52.10;;;;;;5077708;28;1016;-31
2021/12/05 07:45:50;;;;;;;;;;;21.90;52.10;;;;;;5077931;28;1108;-29
2021/12/05 07:48:20;;;;;;;;;;;21.80;52.20;;;;;;5077261;28;1898;-31
2021/12/05 07:50:55;;;;;;;;;;;22.00;52.10;;;;;;5077756;28;992;-30
2021/12/05 07:53:27;;;;;;;;;;;22.00;52.00;;;;;;5077186;28;994;-30
2021/12/05 07:55:59;;;;;;;;;;;21.90;52.00;;;;;;5077143;28;1188;-30
2021/12/05 07:58:49;;;;;;;;;;;21.90;52.00;;;;;;5077373;28;998;-29
2021/12/05 08:14:20;;;;;;;;;;;21.90;51.90;;;;;;5077637;28;924;-29
2021/12/05 08:15:14;;;;;;;;;;;21.90;52.00;;;;;;5077535;28;824;-30
2021/12/05 08:17:49;;;;;;;;;;;22.00;52.00;;;;;;5076765;28;974;-30
2021/12/05 08:20:15;;;;;;;;;;;21.90;52.00;;;;;;5076637;28;1015;-30
2021/12/05 08:22:44;;;;;;;;;;;21.90;52.00;;;;;;5076274;28;1027;-29
2021/12/05 08:25:12;;;;;;;;;;;21.90;52.10;;;;;;5076716;28;1088;-30
2021/12/05 08:27:42;;;;;;;;;;;21.90;52.20;;;;;;5077457;28;1363;-30
2021/12/05 08:30:13;;;;;;;;;;;21.90;52.20;;;;;;5078001;28;1906;-30
2021/12/05 08:32:54;;;;;;;;;;;21.80;52.10;;;;;;5077741;28;1035;-30
2021/12/05 08:35:41;;;;;;;;;;;21.70;52.20;;;;;;5077178;28;987;-29
2021/12/05 09:22:49;;;;;;;;;;;22.00;52.90;;;;;;5096313;28;899;-31
2021/12/05 09:25:37;;;;;;;;;;;22.10;53.00;;;;;;5096722;28;1695;-34
2021/12/05 09:28:41;;;;;;;;;;;22.00;52.90;;;;;;5096650;28;888;-34
2021/12/05 10:06:51;;;;;;;;;;;22.00;53.20;;;;;;5099043;28;1005;-32
2021/12/05 10:09:34;;;;;;;;;;;22.00;53.20;;;;;;5098875;28;1902;-32
2021/12/05 10:12:19;;;;;;;;;;;22.10;53.30;;;;;;5098684;28;1023;-33
2021/12/05 10:14:56;;;;;;;;;;;22.10;53.20;;;;;;5098646;28;1075;-33
2021/12/05 10:17:47;;;;;;;;;;;22.10;53.20;;;;;;5098441;28;1015;-32
2021/12/05 10:26:05;;;;;;;;;;;22.00;53.20;;;;;;5098431;28;1042;-33
2021/12/05 10:26:35;;;;;;;;;;;22.00;53.10;;;;;;5098715;28;826;-34
2021/12/05 10:34:59;;;;;;;;;;;22.00;53.10;;;;;;5098261;28;710;-33
2021/12/05 10:37:26;;;;;;;;;;;22.00;53.10;;;;;;5098099;28;1174;-35
2021/12/05 10:40:02;;;;;;;;;;;22.00;53.00;;;;;;5098666;28;964;-34
2021/12/05 10:42:38;;;;;;;;;;;22.00;53.20;;;;;;5099078;28;921;-34
2021/12/05 10:45:06;;;;;;;;;;;22.00;53.10;;;;;;5098778;28;995;-33
2021/12/05 10:47:37;;;;;;;;;;;22.00;53.10;;;;;;5098662;28;988;-32
2021/12/05 10:50:18;;;;;;;;;;;22.00;53.10;;;;;;5098917;28;1898;-33
2021/12/05 10:52:46;;;;;;;;;;;22.00;53.00;;;;;;5098186;28;1491;-33
2021/12/05 10:55:13;;;;;;;;;;;22.00;53.10;;;;;;5098507;28;958;-33
2021/12/05 10:57:43;;;;;;;;;;;22.00;53.00;;;;;;5098103;28;1436;-33
2021/12/05 11:00:11;;;;;;;;;;;22.00;53.20;;;;;;5098435;28;1512;-35
2021/12/05 11:02:38;;;;;;;;;;;22.10;53.70;;;;;;5098544;28;1153;-35
2021/12/05 11:05:05;;;;;;;;;;;22.30;52.60;;;;;;5098718;28;1034;-33
2021/12/05 11:07:38;;;;;;;;;;;22.40;52.30;;;;;;5098385;28;1361;-33
2021/12/05 11:10:10;;;;;;;;;;;22.50;52.10;;;;;;5098481;28;1984;-34
2021/12/05 11:12:38;;;;;;;;;;;22.40;53.20;;;;;;5098915;28;1003;-35
2021/12/05 11:15:08;;;;;;;;;;;22.40;52.10;;;;;;5098717;28;1084;-35
2021/12/05 11:17:37;;;;;;;;;;;22.50;52.00;;;;;;5098797;28;982;-34
2021/12/05 11:20:07;;;;;;;;;;;22.40;51.80;;;;;;5098373;28;1007;-33
2021/12/05 11:22:36;;;;;;;;;;;22.40;52.00;;;;;;5098308;28;984;-31
2021/12/05 11:25:05;;;;;;;;;;;22.50;52.20;;;;;;5098770;28;1230;-34
2021/12/05 11:27:33;;;;;;;;;;;22.50;51.90;;;;;;5098855;28;933;-35
2021/12/05 11:30:03;;;;;;;;;;;22.60;52.00;;;;;;5099081;28;1888;-30
2021/12/05 11:32:37;;;;;;;;;;;22.70;51.60;;;;;;5097190;28;999;-31
2021/12/05 11:35:10;;;;;;;;;;;22.70;51.40;;;;;;5098082;28;991;-28
2021/12/05 11:37:48;;;;;;;;;;;22.80;51.50;;;;;;5097337;28;1015;-31
2021/12/05 11:40:15;;;;;;;;;;;22.90;51.10;;;;;;5097298;28;967;-31
2021/12/05 11:42:52;;;;;;;;;;;23.00;51.00;;;;;;5097508;28;997;-29
2021/12/05 11:45:19;;;;;;;;;;;23.20;50.90;;;;;;5097059;28;936;-31
2021/12/05 11:47:46;;;;;;;;;;;23.30;50.50;;;;;;5097092;28;876;-32
2021/12/05 11:50:12;;;;;;;;;;;23.30;50.50;;;;;;5097242;28;1987;-29
2021/12/05 11:52:40;;;;;;;;;;;23.30;50.30;;;;;;5097221;28;995;-30
2021/12/05 11:55:07;;;;;;;;;;;23.40;50.40;;;;;;5099022;28;1117;-31
2021/12/05 11:57:35;;;;;;;;;;;23.50;50.10;;;;;;5099189;28;1007;-31
2021/12/05 12:00:10;;;;;;;;;;;23.60;50.20;;;;;;5099233;28;1004;-30
2021/12/05 12:02:40;;;;;;;;;;;23.60;50.20;;;;;;5099104;28;996;-31
2021/12/05 12:05:08;;;;;;;;;;;23.50;50.20;;;;;;5099145;28;988;-31
2021/12/05 12:07:36;;;;;;;;;;;23.60;50.30;;;;;;5098529;28;984;-30
2021/12/05 12:10:06;;;;;;;;;;;23.60;50.80;;;;;;5096528;28;1906;-31
2021/12/05 12:12:33;;;;;;;;;;;23.50;50.40;;;;;;5096552;28;1006;-31
2021/12/05 12:15:00;;;;;;;;;;;23.50;50.40;;;;;;5097227;28;1384;-32
2021/12/05 12:17:28;;;;;;;;;;;23.50;50.70;;;;;;5097467;28;994;-32
2021/12/05 12:19:55;;;;;;;;;;;23.40;50.90;;;;;;5096424;28;968;-32
2021/12/05 12:22:23;;;;;;;;;;;23.40;50.80;;;;;;5096776;28;923;-30
2021/12/05 12:24:51;;;;;;;;;;;23.40;51.10;;;;;;5096515;28;992;-31
2021/12/05 12:27:18;;;;;;;;;;;23.30;52.20;;;;;;5096524;28;983;-31
2021/12/05 12:29:45;;;;;;;;;;;23.30;51.10;;;;;;5097865;28;1982;-31
2021/12/05 12:32:15;;;;;;;;;;;23.30;51.10;;;;;;5097228;28;991;-31
2021/12/05 12:34:44;;;;;;;;;;;23.30;51.20;;;;;;5098388;28;1010;-31
2021/12/05 12:37:11;;;;;;;;;;;23.20;51.20;;;;;;5098281;28;995;-31
2021/12/05 12:39:39;;;;;;;;;;;23.20;51.30;;;;;;5098132;28;1026;-31
2021/12/05 12:42:15;;;;;;;;;;;23.20;51.30;;;;;;5098179;28;990;-32
2021/12/05 12:45:13;;;;;;;;;;;23.20;51.30;;;;;;5097984;28;1580;-30
2021/12/05 12:47:42;;;;;;;;;;;23.20;51.30;;;;;;5036001;28;1129;-32
2021/12/05 12:50:29;;;;;;;;;;;23.20;51.20;;;;;;5084955;28;2000;-31
2021/12/05 12:52:58;;;;;;;;;;;23.30;51.00;;;;;;5098320;28;972;-31
2021/12/05 12:55:27;;;;;;;;;;;23.30;51.00;;;;;;5098446;28;959;-32
2021/12/05 12:57:54;;;;;;;;;;;23.20;50.80;;;;;;5097877;28;940;-30
2021/12/05 13:00:23;;;;;;;;;;;23.20;50.90;;;;;;5098011;28;932;-31
2021/12/05 13:02:57;;;;;;;;;;;23.20;51.20;;;;;;5090650;28;986;-31
2021/12/05 13:05:41;;;;;;;;;;;23.10;51.30;;;;;;5095056;28;987;-30
2021/12/05 13:10:58;;;;;;;;;;;23.00;51.40;;;;;;5071844;28;1994;-31
2021/12/05 13:13:28;;;;;;;;;;;23.00;51.90;;;;;;5071906;28;1595;-31
2021/12/05 13:15:59;;;;;;;;;;;23.00;51.80;;;;;;5075687;28;948;-31
2021/12/05 13:18:29;;;;;;;;;;;22.90;52.00;;;;;;5075766;28;985;-31
2021/12/05 13:21:02;;;;;;;;;;;22.80;52.20;;;;;;5072978;28;1020;-31
2021/12/05 13:23:32;;;;;;;;;;;22.80;52.30;;;;;;5071301;28;998;-31
2021/12/05 13:26:14;;;;;;;;;;;22.80;52.40;;;;;;5075446;28;1004;-31
2021/12/05 13:28:44;;;;;;;;;;;22.80;52.50;;;;;;5072479;28;1384;-30
2021/12/05 13:31:32;;;;;;;;;;;22.80;52.40;;;;;;5074814;28;1898;-30
2021/12/05 13:34:14;;;;;;;;;;;22.80;52.30;;;;;;5075319;28;937;-31
2021/12/05 13:36:41;;;;;;;;;;;22.70;52.50;;;;;;5058482;28;1800;-29
2021/12/05 13:39:23;;;;;;;;;;;22.70;52.40;;;;;;5075566;28;1631;-31
2021/12/05 13:42:01;;;;;;;;;;;22.60;52.50;;;;;;5075470;28;1154;-30
2021/12/05 13:44:43;;;;;;;;;;;22.60;52.50;;;;;;5074575;28;941;-32
2021/12/05 13:47:15;;;;;;;;;;;22.60;52.60;;;;;;5076416;28;1288;-32
2021/12/05 13:49:44;;;;;;;;;;;22.60;52.50;;;;;;5076394;28;1976;-32
2021/12/05 13:52:30;;;;;;;;;;;22.60;52.60;;;;;;5076733;28;898;-31
2021/12/05 13:55:12;;;;;;;;;;;22.70;52.70;;;;;;5076817;28;937;-33
2021/12/05 13:58:00;;;;;;;;;;;22.70;52.50;;;;;;5077347;28;1424;-31
2021/12/05 14:00:38;;;;;;;;;;;22.80;52.30;;;;;;5075852;28;1545;-31
2021/12/05 14:03:05;;;;;;;;;;;22.90;52.10;;;;;;5077202;28;1001;-31
2021/12/05 14:05:32;;;;;;;;;;;23.10;51.90;;;;;;5076705;28;941;-31
2021/12/05 14:07:59;;;;;;;;;;;23.30;51.20;;;;;;5076335;28;1213;-31
2021/12/05 14:10:26;;;;;;;;;;;23.40;50.80;;;;;;5076489;28;1894;-30
2021/12/05 14:12:54;;;;;;;;;;;23.50;50.60;;;;;;5076436;28;1039;-31
2021/12/05 14:15:22;;;;;;;;;;;23.70;50.70;;;;;;5078514;28;1027;-30
2021/12/05 14:17:51;;;;;;;;;;;23.80;50.50;;;;;;5079518;28;1825;-30
2021/12/05 14:20:20;;;;;;;;;;;23.80;50.00;;;;;;5080243;28;893;-31
2021/12/05 14:22:48;;;;;;;;;;;23.80;50.10;;;;;;5080643;28;1162;-32
2021/12/05 14:25:17;;;;;;;;;;;23.90;50.10;;;;;;5080359;28;1790;-31
2021/12/05 14:27:45;;;;;;;;;;;24.00;50.00;;;;;;5080951;28;948;-31
2021/12/05 14:30:15;;;;;;;;;;;24.10;49.90;;;;;;5078861;28;1979;-32
2021/12/05 14:32:43;;;;;;;;;;;24.20;49.80;;;;;;5080234;28;1035;-32
2021/12/05 14:35:11;;;;;;;;;;;24.20;49.80;;;;;;5080112;28;980;-32
2021/12/05 14:37:40;;;;;;;;;;;24.20;49.70;;;;;;5078443;28;1007;-32
2021/12/05 14:40:09;;;;;;;;;;;24.20;49.90;;;;;;5079326;28;877;-32
2021/12/05 14:42:37;;;;;;;;;;;24.10;49.80;;;;;;5078313;28;1084;-32
2021/12/05 14:45:05;;;;;;;;;;;24.00;50.00;;;;;;5078319;28;825;-32
2021/12/05 14:47:36;;;;;;;;;;;24.00;50.20;;;;;;5079367;28;1019;-33
2021/12/05 14:50:05;;;;;;;;;;;24.00;50.40;;;;;;5078846;28;1984;-32
2021/12/05 14:52:35;;;;;;;;;;;24.00;50.40;;;;;;5079101;28;1666;-32
2021/12/05 14:55:03;;;;;;;;;;;24.00;50.40;;;;;;5078723;28;3067;-33
2021/12/05 14:57:32;;;;;;;;;;;23.90;50.50;;;;;;5079853;28;993;-34
2021/12/05 15:00:02;;;;;;;;;;;23.80;50.90;;;;;;5079349;28;972;-32
2021/12/05 15:02:29;;;;;;;;;;;23.80;51.10;;;;;;5079824;28;979;-33
2021/12/05 15:04:57;;;;;;;;;;;23.80;51.20;;;;;;5079630;28;1039;-33
2021/12/05 15:07:25;;;;;;;;;;;23.80;51.20;;;;;;5079373;28;1230;-32
2021/12/05 15:09:54;;;;;;;;;;;23.70;51.40;;;;;;5077385;28;1989;-31
2021/12/05 15:12:23;;;;;;;;;;;23.70;51.50;;;;;;5079522;28;1168;-32
2021/12/05 15:14:53;;;;;;;;;;;23.60;51.50;;;;;;5079325;28;957;-32
2021/12/05 15:17:22;;;;;;;;;;;23.60;51.60;;;;;;5076941;28;988;-33
2021/12/05 15:19:51;;;;;;;;;;;23.50;51.80;;;;;;5077396;28;1483;-31
2021/12/05 15:22:21;;;;;;;;;;;23.50;52.10;;;;;;5077082;28;987;-31
2021/12/05 15:24:50;;;;;;;;;;;23.50;52.10;;;;;;5077255;28;960;-32
2021/12/05 15:27:18;;;;;;;;;;;23.50;52.30;;;;;;5077079;28;1004;-30
2021/12/05 15:29:46;;;;;;;;;;;23.50;52.30;;;;;;5076790;28;1048;-31
2021/12/05 15:32:15;;;;;;;;;;;23.40;52.60;;;;;;5075345;28;1983;-35
2021/12/05 15:34:42;;;;;;;;;;;23.50;52.80;;;;;;5076988;28;1013;-37
2021/12/05 15:37:11;;;;;;;;;;;23.40;52.90;;;;;;5076231;28;1005;-34
2021/12/05 15:39:42;;;;;;;;;;;23.30;53.10;;;;;;5077158;28;1542;-33
2021/12/05 15:42:17;;;;;;;;;;;23.30;53.10;;;;;;5077247;28;1184;-34
2021/12/05 15:44:44;;;;;;;;;;;23.30;53.20;;;;;;5077268;28;1005;-34
2021/12/05 15:47:12;;;;;;;;;;;23.30;53.80;;;;;;5075547;28;1351;-33
2021/12/05 15:49:43;;;;;;;;;;;23.30;53.70;;;;;;5077743;28;941;-33
2021/12/05 15:52:10;;;;;;;;;;;23.30;53.60;;;;;;5077007;28;1906;-35
2021/12/05 15:54:38;;;;;;;;;;;23.30;53.60;;;;;;5077313;28;1670;-35
2021/12/05 15:57:09;;;;;;;;;;;23.30;53.60;;;;;;5077125;28;993;-32
2021/12/05 15:59:39;;;;;;;;;;;23.30;53.80;;;;;;5077022;28;1171;-33
2021/12/05 16:02:10;;;;;;;;;;;23.30;53.90;;;;;;5076457;28;983;-34
2021/12/05 16:04:38;;;;;;;;;;;23.40;53.70;;;;;;5077080;28;952;-32
2021/12/05 16:07:08;;;;;;;;;;;23.20;53.50;;;;;;5077387;28;1564;-34
2021/12/05 16:09:35;;;;;;;;;;;23.20;53.60;;;;;;5072199;28;1403;-33
2021/12/05 16:12:08;;;;;;;;;;;23.10;53.60;;;;;;5069902;28;1898;-33
2021/12/05 16:14:37;;;;;;;;;;;23.10;53.70;;;;;;5076902;28;1314;-34
2021/12/05 16:17:13;;;;;;;;;;;23.00;53.70;;;;;;5077783;28;1134;-32
2021/12/05 16:19:40;;;;;;;;;;;23.00;53.80;;;;;;5077950;28;1018;-34
2021/12/05 16:22:14;;;;;;;;;;;23.00;53.90;;;;;;5070449;28;1382;-34
2021/12/05 16:24:42;;;;;;;;;;;23.00;53.90;;;;;;5078303;28;924;-38
2021/12/05 16:27:10;;;;;;;;;;;23.00;53.80;;;;;;5078330;28;1051;-36
2021/12/05 16:29:38;;;;;;;;;;;23.00;54.20;;;;;;5078766;28;1528;-34
2021/12/05 16:32:05;;;;;;;;;;;23.00;54.20;;;;;;5076488;28;1983;-31
2021/12/05 16:34:33;;;;;;;;;;;22.90;54.20;;;;;;5078105;28;1035;-33
2021/12/05 16:37:02;;;;;;;;;;;22.90;54.20;;;;;;5078521;28;1120;-37
2021/12/05 16:39:30;;;;;;;;;;;22.90;54.40;;;;;;5076215;28;1000;-34
2021/12/05 16:41:58;;;;;;;;;;;22.90;54.50;;;;;;5076496;28;959;-36
2021/12/05 16:44:27;;;;;;;;;;;23.00;54.60;;;;;;5075575;28;1000;-37
2021/12/05 16:46:56;;;;;;;;;;;23.00;54.50;;;;;;5077258;28;1335;-34
2021/12/05 16:49:25;;;;;;;;;;;23.00;54.50;;;;;;5075151;28;1052;-33
2021/12/05 16:51:53;;;;;;;;;;;22.90;54.50;;;;;;5076232;28;1897;-34
2021/12/05 16:54:23;;;;;;;;;;;22.90;54.40;;;;;;5075600;28;988;-35
2021/12/05 16:56:57;;;;;;;;;;;22.80;54.40;;;;;;5076112;28;1213;-34
2021/12/05 16:59:26;;;;;;;;;;;22.80;54.50;;;;;;5075159;28;1012;-33
2021/12/05 17:02:12;;;;;;;;;;;22.90;54.20;;;;;;5075131;28;1820;-34
2021/12/05 17:04:43;;;;;;;;;;;23.00;54.20;;;;;;5074744;28;1012;-36
2021/12/05 17:07:14;;;;;;;;;;;22.90;54.10;;;;;;5075936;28;1091;-38
2021/12/05 17:09:42;;;;;;;;;;;23.00;54.00;;;;;;5074408;28;1315;-37
2021/12/05 17:12:25;;;;;;;;;;;23.00;54.50;;;;;;5075377;28;1902;-33
2021/12/05 17:14:51;;;;;;;;;;;23.10;53.90;;;;;;5074507;28;981;-29
2021/12/05 17:17:33;;;;;;;;;;;23.10;53.90;;;;;;5072934;28;997;-30
2021/12/05 17:20:17;;;;;;;;;;;23.10;54.10;;;;;;5075972;28;1465;-35
2021/12/05 17:22:51;;;;;;;;;;;23.20;54.20;;;;;;5075459;28;1109;-34
2021/12/05 17:25:26;;;;;;;;;;;23.10;53.70;;;;;;5075659;28;988;-36
2021/12/05 17:27:53;;;;;;;;;;;23.00;54.00;;;;;;5075491;28;994;-35
2021/12/05 17:30:20;;;;;;;;;;;23.00;54.10;;;;;;5073094;28;1999;-35
2021/12/05 17:32:49;;;;;;;;;;;22.90;54.20;;;;;;5073536;28;1969;-36
2021/12/05 17:35:16;;;;;;;;;;;22.90;54.20;;;;;;5074272;28;1000;-36
2021/12/05 17:37:44;;;;;;;;;;;22.90;54.20;;;;;;5074428;28;1406;-34
2021/12/05 17:40:11;;;;;;;;;;;22.90;54.30;;;;;;5074562;28;1007;-33
2021/12/05 17:42:39;;;;;;;;;;;22.90;55.50;;;;;;5074837;28;989;-40
2021/12/05 17:45:09;;;;;;;;;;;22.90;54.30;;;;;;5074744;28;1047;-39
2021/12/05 17:47:36;;;;;;;;;;;22.80;54.30;;;;;;5074438;28;1000;-32
2021/12/05 17:50:07;;;;;;;;;;;22.80;54.40;;;;;;5076233;28;1086;-33
2021/12/05 17:52:34;;;;;;;;;;;22.80;54.40;;;;;;5078641;28;1898;-31
2021/12/05 17:55:06;;;;;;;;;;;22.80;54.40;;;;;;5078054;28;1011;-38
2021/12/05 17:57:37;;;;;;;;;;;22.90;55.60;;;;;;5078545;28;1941;-38
2021/12/05 18:00:20;;;;;;;;;;;22.80;54.40;;;;;;5078487;28;1604;-38
2021/12/05 18:02:53;;;;;;;;;;;22.80;54.50;;;;;;5078832;28;1001;-37
2021/12/05 18:05:22;;;;;;;;;;;22.80;54.50;;;;;;5078239;28;1040;-36
2021/12/05 18:07:50;;;;;;;;;;;22.80;54.50;;;;;;5077714;28;1059;-33
2021/12/05 18:10:18;;;;;;;;;;;22.80;54.50;;;;;;5078237;28;988;-36
2021/12/05 18:12:46;;;;;;;;;;;22.80;54.60;;;;;;5078338;28;1901;-39
2021/12/05 18:15:17;;;;;;;;;;;22.70;54.70;;;;;;5078185;28;985;-36
2021/12/05 18:17:45;;;;;;;;;;;22.80;54.70;;;;;;5079606;28;1892;-35
2021/12/05 18:20:15;;;;;;;;;;;22.80;54.60;;;;;;5078964;28;880;-36
2021/12/05 18:22:43;;;;;;;;;;;22.80;54.50;;;;;;5078844;28;996;-38
2021/12/05 18:25:12;;;;;;;;;;;22.90;54.30;;;;;;5079352;28;1013;-36
2021/12/05 18:27:40;;;;;;;;;;;23.00;54.40;;;;;;5079126;28;1033;-32
2021/12/05 18:30:08;;;;;;;;;;;23.00;54.10;;;;;;5077450;28;916;-34
2021/12/05 18:32:35;;;;;;;;;;;23.10;54.80;;;;;;5078900;28;1983;-34
2021/12/05 18:35:02;;;;;;;;;;;23.20;54.60;;;;;;5077846;28;1016;-31
2021/12/05 18:37:29;;;;;;;;;;;23.10;54.20;;;;;;5077666;28;1025;-32
2021/12/05 18:39:57;;;;;;;;;;;23.20;55.00;;;;;;5078580;28;931;-32
2021/12/05 18:42:25;;;;;;;;;;;23.20;55.40;;;;;;5077940;28;1040;-33
2021/12/05 18:44:56;;;;;;;;;;;23.30;55.80;;;;;;5077681;28;989;-32
2021/12/05 18:47:24;;;;;;;;;;;23.30;56.10;;;;;;5078759;28;2103;-34
2021/12/05 18:49:51;;;;;;;;;;;23.30;55.90;;;;;;5077829;28;1004;-36
2021/12/05 18:52:19;;;;;;;;;;;23.30;55.90;;;;;;5078035;28;1898;-32